sensor_id;sensor_type;location;lat;lon;timestamp;pressure;altitude;pressure_sealevel;temperature;humidity
55656;BME280;41530;52.382;5.270;2023-03-31T00:02:11;100492.16;;;17.84;50.31
55656;BME280;41530;52.382;5.270;2023-03-31T00:04:41;100481.84;;;17.81;50.36
55656;BME280;41530;52.382;5.270;2023-03-31T00:07:19;100488.66;;;17.84;50.15
55656;BME280;41530;52.382;5.270;2023-03-31T00:09:47;100475.84;;;17.79;50.14
55656;BME280;41530;52.382;5.270;2023-03-31T00:12:15;100469.69;;;17.78;50.19
55656;BME280;41530;52.382;5.270;2023-03-31T00:14:42;100467.03;;;17.78;50.31
55656;BME280;41530;52.382;5.270;2023-03-31T00:17:09;100465.88;;;17.81;50.38
55656;BME280;41530;52.382;5.270;2023-03-31T00:19:37;100452.88;;;17.78;50.15
55656;BME280;41530;52.382;5.270;2023-03-31T00:22:05;100456.38;;;17.78;50.44
55656;BME280;41530;52.382;5.270;2023-03-31T00:24:32;100446.41;;;17.80;50.33
55656;BME280;41530;52.382;5.270;2023-03-31T00:27:03;100446.41;;;17.80;50.39
55656;BME280;41530;52.382;5.270;2023-03-31T00:29:30;100438.75;;;17.77;50.29
55656;BME280;41530;52.382;5.270;2023-03-31T00:31:58;100436.94;;;17.78;50.31
55656;BME280;41530;52.382;5.270;2023-03-31T00:34:26;100428.94;;;17.78;50.26
55656;BME280;41530;52.382;5.270;2023-03-31T00:36:53;100424.47;;;17.78;50.46
55656;BME280;41530;52.382;5.270;2023-03-31T00:39:22;100421.81;;;17.78;50.53
55656;BME280;41530;52.382;5.270;2023-03-31T00:41:50;100418.97;;;17.80;50.45
55656;BME280;41530;52.382;5.270;2023-03-31T00:44:21;100412.00;;;17.79;50.31
55656;BME280;41530;52.382;5.270;2023-03-31T00:47:12;100406.66;;;17.79;50.31
55656;BME280;41530;52.382;5.270;2023-03-31T00:49:46;100402.19;;;17.79;50.50
55656;BME280;41530;52.382;5.270;2023-03-31T00:52:27;100387.53;;;17.75;50.30
55656;BME280;41530;52.382;5.270;2023-03-31T00:55:00;100379.22;;;17.78;50.53
55656;BME280;41530;52.382;5.270;2023-03-31T00:57:28;100376.56;;;17.78;50.42
55656;BME280;41530;52.382;5.270;2023-03-31T01:00:02;100365.94;;;17.78;50.64
55656;BME280;41530;52.382;5.270;2023-03-31T01:02:59;100360.59;;;17.78;50.42
55656;BME280;41530;52.382;5.270;2023-03-31T01:05:38;100350.97;;;17.77;50.38
55656;BME280;41530;52.382;5.270;2023-03-31T01:08:08;100350.97;;;17.77;50.65
55656;BME280;41530;52.382;5.270;2023-03-31T01:10:39;100352.63;;;17.78;50.62
55656;BME280;41530;52.382;5.270;2023-03-31T01:13:08;100343.66;;;17.79;50.68
55656;BME280;41530;52.382;5.270;2023-03-31T01:15:36;100335.00;;;17.77;50.49
55656;BME280;41530;52.382;5.270;2023-03-31T01:18:04;100327.00;;;17.77;50.58
55656;BME280;41530;52.382;5.270;2023-03-31T01:29:03;100310.88;;;17.79;50.71
55656;BME280;41530;52.382;5.270;2023-03-31T02:06:34;100134.53;;;17.22;51.24
55656;BME280;41530;52.382;5.270;2023-03-31T02:14:10;100199.66;;;17.74;51.43
55656;BME280;41530;52.382;5.270;2023-03-31T02:25:37;100179.53;;;17.72;51.36
55656;BME280;41530;52.382;5.270;2023-03-31T02:29:36;100097.16;;;17.23;51.38
55656;BME280;41530;52.382;5.270;2023-03-31T02:43:30;100063.91;;;17.19;51.42
55656;BME280;41530;52.382;5.270;2023-03-31T02:56:43;100101.91;;;17.68;51.81
55656;BME280;41530;52.382;5.270;2023-03-31T03:14:30;100058.69;;;17.66;51.87
55656;BME280;41530;52.382;5.270;2023-03-31T04:04:49;99856.66;;;17.11;52.11
55656;BME280;41530;52.382;5.270;2023-03-31T04:08:09;99855.66;;;17.12;52.02
55656;BME280;41530;52.382;5.270;2023-03-31T04:11:09;99852.00;;;17.13;51.98
55656;BME280;41530;52.382;5.270;2023-03-31T04:14:19;99840.56;;;17.13;51.90
55656;BME280;41530;52.382;5.270;2023-03-31T04:17:12;99856.06;;;17.32;52.02
55656;BME280;41530;52.382;5.270;2023-03-31T04:19:45;99874.28;;;17.43;52.02
55656;BME280;41530;52.382;5.270;2023-03-31T04:23:38;99823.44;;;17.15;51.89
55656;BME280;41530;52.382;5.270;2023-03-31T04:26:25;99866.78;;;17.46;51.89
55656;BME280;41530;52.382;5.270;2023-03-31T04:29:16;99812.25;;;17.20;51.75
55656;BME280;41530;52.382;5.270;2023-03-31T04:31:57;99843.38;;;17.42;51.77
55656;BME280;41530;52.382;5.270;2023-03-31T04:34:51;99856.09;;;17.55;51.91
55656;BME280;41530;52.382;5.270;2023-03-31T04:37:29;99796.31;;;17.20;51.80
55656;BME280;41530;52.382;5.270;2023-03-31T04:40:30;99805.53;;;17.32;51.76
55656;BME280;41530;52.382;5.270;2023-03-31T04:43:00;99801.38;;;17.37;51.82
55656;BME280;41530;52.382;5.270;2023-03-31T04:45:26;99807.63;;;17.44;51.70
55656;BME280;41530;52.382;5.270;2023-03-31T04:47:55;99801.78;;;17.49;51.73
55656;BME280;41530;52.382;5.270;2023-03-31T04:50:36;99772.63;;;17.41;51.75
55656;BME280;41530;52.382;5.270;2023-03-31T04:53:15;99740.34;;;17.21;51.63
55656;BME280;41530;52.382;5.270;2023-03-31T04:55:49;99775.69;;;17.53;51.82
55656;BME280;41530;52.382;5.270;2023-03-31T04:58:19;99770.00;;;17.56;51.60
55656;BME280;41530;52.382;5.270;2023-03-31T05:00:54;99705.63;;;17.23;51.60
55656;BME280;41530;52.382;5.270;2023-03-31T05:03:28;99739.97;;;17.47;51.57
55656;BME280;41530;52.382;5.270;2023-03-31T05:05:57;99704.44;;;17.25;51.56
55656;BME280;41530;52.382;5.270;2023-03-31T05:08:30;99715.47;;;17.37;51.57
55656;BME280;41530;52.382;5.270;2023-03-31T05:11:03;99740.75;;;17.56;51.56
55656;BME280;41530;52.382;5.270;2023-03-31T05:13:40;99734.63;;;17.55;51.50
55656;BME280;41530;52.382;5.270;2023-03-31T05:16:32;99681.00;;;17.29;52.09
55656;BME280;41530;52.382;5.270;2023-03-31T05:19:05;99680.81;;;17.30;51.79
55656;BME280;41530;52.382;5.270;2023-03-31T05:21:34;99748.91;;;17.77;52.31
55656;BME280;41530;52.382;5.270;2023-03-31T05:25:02;99744.41;;;17.77;52.10
55656;BME280;41530;52.382;5.270;2023-03-31T05:28:08;99739.09;;;17.77;52.33
55656;BME280;41530;52.382;5.270;2023-03-31T05:30:50;99676.34;;;17.45;51.84
55656;BME280;41530;52.382;5.270;2023-03-31T05:33:24;99651.59;;;17.30;51.65
55656;BME280;41530;52.382;5.270;2023-03-31T05:36:22;99670.84;;;17.47;51.73
55656;BME280;41530;52.382;5.270;2023-03-31T05:39:07;99624.06;;;17.23;51.65
55656;BME280;41530;52.382;5.270;2023-03-31T05:41:44;99653.25;;;17.46;51.98
55656;BME280;41530;52.382;5.270;2023-03-31T05:45:13;99650.59;;;17.46;51.93
55656;BME280;41530;52.382;5.270;2023-03-31T05:48:11;99623.88;;;17.25;51.67
55656;BME280;41530;52.382;5.270;2023-03-31T05:59:07;99697.19;;;17.79;52.49
55656;BME280;41530;52.382;5.270;2023-03-31T06:06:07;99688.19;;;17.80;52.24
55656;BME280;41530;52.382;5.270;2023-03-31T06:13:11;99601.91;;;17.31;52.58
55656;BME280;41530;52.382;5.270;2023-03-31T06:16:23;99650.28;;;17.64;52.51
55656;BME280;41530;52.382;5.270;2023-03-31T06:23:27;99619.50;;;17.46;52.00
55656;BME280;41530;52.382;5.270;2023-03-31T06:29:56;99659.66;;;17.74;52.08
55656;BME280;41530;52.382;5.270;2023-03-31T06:56:05;99556.88;;;17.15;52.96
55656;BME280;41530;52.382;5.270;2023-03-31T07:11:01;99630.13;;;17.69;53.13
55656;BME280;41530;52.382;5.270;2023-03-31T07:35:45;99613.34;;;17.69;53.54
55656;BME280;41530;52.382;5.270;2023-03-31T07:42:36;99524.91;;;17.23;53.35
55656;BME280;41530;52.382;5.270;2023-03-31T07:45:44;99515.63;;;17.19;53.72
55656;BME280;41530;52.382;5.270;2023-03-31T07:48:27;99567.47;;;17.52;53.84
55656;BME280;41530;52.382;5.270;2023-03-31T07:51:15;99562.31;;;17.51;53.70
55656;BME280;41530;52.382;5.270;2023-03-31T07:58:10;99600.41;;;17.80;53.75
55656;BME280;41530;52.382;5.270;2023-03-31T08:05:01;99556.41;;;17.63;53.71
55656;BME280;41530;52.382;5.270;2023-03-31T08:07:44;99510.16;;;17.35;53.67
55656;BME280;41530;52.382;5.270;2023-03-31T08:14:45;99519.97;;;17.49;53.38
55656;BME280;41530;52.382;5.270;2023-03-31T08:18:24;99502.00;;;17.36;53.52
55656;BME280;41530;52.382;5.270;2023-03-31T08:21:39;99530.06;;;17.54;53.34
55656;BME280;41530;52.382;5.270;2023-03-31T08:24:54;99496.31;;;17.39;53.37
55656;BME280;41530;52.382;5.270;2023-03-31T08:28:06;99496.50;;;17.38;53.32
55656;BME280;41530;52.382;5.270;2023-03-31T08:31:08;99493.66;;;17.39;53.17
55656;BME280;41530;52.382;5.270;2023-03-31T08:34:13;99507.84;;;17.46;53.23
55656;BME280;41530;52.382;5.270;2023-03-31T08:37:17;99494.03;;;17.51;53.04
55656;BME280;41530;52.382;5.270;2023-03-31T08:40:46;99560.41;;;17.89;52.89
55656;BME280;41530;52.382;5.270;2023-03-31T08:47:15;99481.19;;;17.55;52.65
55656;BME280;41530;52.382;5.270;2023-03-31T08:50:29;99500.00;;;17.68;52.46
55656;BME280;41530;52.382;5.270;2023-03-31T09:10:37;99534.25;;;18.07;52.79
55656;BME280;41530;52.382;5.270;2023-03-31T09:20:54;99438.06;;;17.59;52.83
55656;BME280;41530;52.382;5.270;2023-03-31T09:28:25;99481.63;;;17.88;53.24
55656;BME280;41530;52.382;5.270;2023-03-31T09:31:51;99423.88;;;17.52;52.86
55656;BME280;41530;52.382;5.270;2023-03-31T09:34:55;99440.53;;;17.61;52.95
55656;BME280;41530;52.382;5.270;2023-03-31T09:38:22;99455.69;;;17.75;52.87
55656;BME280;41530;52.382;5.270;2023-03-31T09:45:28;99451.19;;;17.75;53.53
55656;BME280;41530;52.382;5.270;2023-03-31T09:49:11;99485.34;;;18.08;53.63
55656;BME280;41530;52.382;5.270;2023-03-31T09:55:59;99490.53;;;18.16;53.32
55656;BME280;41530;52.382;5.270;2023-03-31T09:58:50;99389.69;;;17.64;53.12
55656;BME280;41530;52.382;5.270;2023-03-31T10:05:54;99455.81;;;18.24;53.16
55656;BME280;41530;52.382;5.270;2023-03-31T10:09:32;99399.09;;;17.81;52.98
55656;BME280;41530;52.382;5.270;2023-03-31T10:23:56;99414.56;;;17.92;53.37
55656;BME280;41530;52.382;5.270;2023-03-31T10:30:06;99443.72;;;18.22;53.31
55656;BME280;41530;52.382;5.270;2023-03-31T10:36:38;99402.44;;;17.90;53.24
55656;BME280;41530;52.382;5.270;2023-03-31T10:48:46;99361.41;;;17.77;53.45
55656;BME280;41530;52.382;5.270;2023-03-31T10:52:42;99342.72;;;17.71;54.13
55656;BME280;41530;52.382;5.270;2023-03-31T11:12:29;99425.72;;;18.24;53.56
55656;BME280;41530;52.382;5.270;2023-03-31T11:15:48;99433.50;;;18.25;53.88
55656;BME280;41530;52.382;5.270;2023-03-31T11:43:51;99424.69;;;18.25;53.93
55656;BME280;41530;52.382;5.270;2023-03-31T11:51:00;99416.91;;;18.23;53.82
55656;BME280;41530;52.382;5.270;2023-03-31T11:55:01;99331.50;;;17.75;53.88
55656;BME280;41530;52.382;5.270;2023-03-31T12:01:37;99338.34;;;17.85;53.82
55656;BME280;41530;52.382;5.270;2023-03-31T12:18:35;99305.91;;;17.74;53.90
55656;BME280;41530;52.382;5.270;2023-03-31T12:33:39;99391.59;;;18.34;54.06
55656;BME280;41530;52.382;5.270;2023-03-31T12:56:23;99322.19;;;18.07;53.87
55656;BME280;41530;52.382;5.270;2023-03-31T13:02:45;99350.84;;;18.33;54.09
55656;BME280;41530;52.382;5.270;2023-03-31T13:10:30;99282.16;;;17.94;54.09
55656;BME280;41530;52.382;5.270;2023-03-31T13:13:43;99281.34;;;17.94;54.04
55656;BME280;41530;52.382;5.270;2023-03-31T13:16:41;99339.38;;;18.33;53.50
55656;BME280;41530;52.382;5.270;2023-03-31T13:23:37;99249.75;;;17.84;54.02
55656;BME280;41530;52.382;5.270;2023-03-31T13:31:28;99261.25;;;17.91;53.99
55656;BME280;41530;52.382;5.270;2023-03-31T13:41:47;99310.72;;;18.35;54.06
55656;BME280;41530;52.382;5.270;2023-03-31T14:10:08;99213.13;;;17.86;54.10
55656;BME280;41530;52.382;5.270;2023-03-31T14:13:26;99300.09;;;18.35;54.23
55656;BME280;41530;52.382;5.270;2023-03-31T14:17:15;99270.09;;;18.20;54.08
55656;BME280;41530;52.382;5.270;2023-03-31T14:23:20;99303.75;;;18.34;54.12
55656;BME280;41530;52.382;5.270;2023-03-31T14:33:25;99290.63;;;18.32;54.16
55656;BME280;41530;52.382;5.270;2023-03-31T14:39:51;99204.13;;;17.87;54.21
55656;BME280;41530;52.382;5.270;2023-03-31T14:43:32;99274.84;;;18.31;53.96
55656;BME280;41530;52.382;5.270;2023-03-31T14:46:04;99276.69;;;18.30;54.19
55656;BME280;41530;52.382;5.270;2023-03-31T14:48:34;99274.03;;;18.30;53.77
55656;BME280;41530;52.382;5.270;2023-03-31T14:51:09;99273.22;;;18.30;53.83
55656;BME280;41530;52.382;5.270;2023-03-31T14:53:36;99273.22;;;18.30;53.83
55656;BME280;41530;52.382;5.270;2023-03-31T14:58:39;99264.22;;;18.31;54.27
55656;BME280;41530;52.382;5.270;2023-03-31T15:01:08;99274.66;;;18.32;54.34
55656;BME280;41530;52.382;5.270;2023-03-31T15:03:39;99279.16;;;18.32;53.80
55656;BME280;41530;52.382;5.270;2023-03-31T15:06:07;99284.50;;;18.32;54.23
55656;BME280;41530;52.382;5.270;2023-03-31T15:08:34;99282.66;;;18.32;54.06
55656;BME280;41530;52.382;5.270;2023-03-31T15:11:05;99274.66;;;18.32;54.14
55656;BME280;41530;52.382;5.270;2023-03-31T15:13:44;99273.66;;;18.33;53.64
55656;BME280;41530;52.382;5.270;2023-03-31T15:16:42;99258.50;;;18.34;53.93
55656;BME280;41530;52.382;5.270;2023-03-31T15:19:18;99271.81;;;18.34;54.14
55656;BME280;41530;52.382;5.270;2023-03-31T15:21:52;99273.47;;;18.35;53.90
55656;BME280;41530;52.382;5.270;2023-03-31T15:24:20;99276.31;;;18.33;53.67
55656;BME280;41530;52.382;5.270;2023-03-31T15:29:32;99269.97;;;18.34;54.06
55656;BME280;41530;52.382;5.270;2023-03-31T15:32:02;99266.50;;;18.34;53.92
55656;BME280;41530;52.382;5.270;2023-03-31T15:34:33;99263.00;;;18.33;53.73
55656;BME280;41530;52.382;5.270;2023-03-31T15:37:05;99265.66;;;18.33;53.77
55656;BME280;41530;52.382;5.270;2023-03-31T15:39:34;99261.16;;;18.34;54.09
55656;BME280;41530;52.382;5.270;2023-03-31T15:42:03;99257.50;;;18.35;53.72
55656;BME280;41530;52.382;5.270;2023-03-31T15:44:43;99258.50;;;18.34;53.87
55656;BME280;41530;52.382;5.270;2023-03-31T15:47:23;99259.97;;;18.36;53.99
55656;BME280;41530;52.382;5.270;2023-03-31T15:49:57;99257.28;;;18.36;53.69
55656;BME280;41530;52.382;5.270;2023-03-31T15:52:31;99257.50;;;18.35;53.96
55656;BME280;41530;52.382;5.270;2023-03-31T15:55:01;99252.78;;;18.37;53.69
55656;BME280;41530;52.382;5.270;2023-03-31T15:57:31;99251.16;;;18.36;53.54
55656;BME280;41530;52.382;5.270;2023-03-31T15:59:58;99246.66;;;18.36;53.66
55656;BME280;41530;52.382;5.270;2023-03-31T16:02:44;99248.50;;;18.36;53.75
55656;BME280;41530;52.382;5.270;2023-03-31T16:05:55;99252.34;;;18.33;53.57
55656;BME280;41530;52.382;5.270;2023-03-31T16:16:16;99241.53;;;18.35;53.30
55656;BME280;41530;52.382;5.270;2023-03-31T16:19:07;99246.00;;;18.34;53.89
55656;BME280;41530;52.382;5.270;2023-03-31T16:21:41;99242.34;;;18.35;53.70
55656;BME280;41530;52.382;5.270;2023-03-31T16:24:09;99238.03;;;18.34;53.32
55656;BME280;41530;52.382;5.270;2023-03-31T16:26:36;99232.06;;;18.32;53.35
55656;BME280;41530;52.382;5.270;2023-03-31T16:29:04;99229.41;;;18.32;53.23
55656;BME280;41530;52.382;5.270;2023-03-31T16:31:39;99228.41;;;18.33;53.95
55656;BME280;41530;52.382;5.270;2023-03-31T16:34:08;99235.38;;;18.34;53.45
55656;BME280;41530;52.382;5.270;2023-03-31T16:36:36;99240.69;;;18.34;53.49
55656;BME280;41530;52.382;5.270;2023-03-31T16:39:04;99223.06;;;18.33;53.31
55656;BME280;41530;52.382;5.270;2023-03-31T16:41:32;99222.88;;;18.35;53.40
55656;BME280;41530;52.382;5.270;2023-03-31T16:43:59;99224.72;;;18.34;53.98
55656;BME280;41530;52.382;5.270;2023-03-31T16:46:27;99220.22;;;18.35;53.64
55656;BME280;41530;52.382;5.270;2023-03-31T16:48:53;99219.41;;;18.34;53.57
55656;BME280;41530;52.382;5.270;2023-03-31T16:51:20;99215.91;;;18.34;53.64
55656;BME280;41530;52.382;5.270;2023-03-31T16:53:47;99217.56;;;18.35;53.60
55656;BME280;41530;52.382;5.270;2023-03-31T16:56:14;99222.06;;;18.34;53.38
55656;BME280;41530;52.382;5.270;2023-03-31T16:58:41;99211.59;;;18.33;53.67
55656;BME280;41530;52.382;5.270;2023-03-31T17:01:09;99210.59;;;18.34;53.71
55656;BME280;41530;52.382;5.270;2023-03-31T17:03:36;99208.94;;;18.33;53.62
55656;BME280;41530;52.382;5.270;2023-03-31T17:06:08;99211.41;;;18.34;53.55
55656;BME280;41530;52.382;5.270;2023-03-31T17:08:35;99202.59;;;18.34;53.28
55656;BME280;41530;52.382;5.270;2023-03-31T17:13:32;99202.59;;;18.34;53.39
55656;BME280;41530;52.382;5.270;2023-03-31T17:15:59;99198.28;;;18.33;53.49
55656;BME280;41530;52.382;5.270;2023-03-31T17:18:43;99200.97;;;18.33;53.32
55656;BME280;41530;52.382;5.270;2023-03-31T17:21:11;99208.13;;;18.32;53.50
55656;BME280;41530;52.382;5.270;2023-03-31T17:23:39;99198.50;;;18.31;53.32
55656;BME280;41530;52.382;5.270;2023-03-31T17:26:07;99198.50;;;18.31;53.12
55656;BME280;41530;52.382;5.270;2023-03-31T17:28:41;99196.84;;;18.30;53.08
55656;BME280;41530;52.382;5.270;2023-03-31T17:31:16;99201.34;;;18.30;53.67
55656;BME280;41530;52.382;5.270;2023-03-31T17:33:44;99191.72;;;18.29;53.30
55656;BME280;41530;52.382;5.270;2023-03-31T17:36:11;99198.69;;;18.30;53.29
55656;BME280;41530;52.382;5.270;2023-03-31T17:38:38;99194.38;;;18.29;53.31
55656;BME280;41530;52.382;5.270;2023-03-31T17:41:07;99195.19;;;18.29;53.31
55656;BME280;41530;52.382;5.270;2023-03-31T17:43:34;99194.38;;;18.29;53.17
55656;BME280;41530;52.382;5.270;2023-03-31T17:46:02;99196.22;;;18.28;53.16
55656;BME280;41530;52.382;5.270;2023-03-31T17:48:29;99199.88;;;18.27;53.21
55656;BME280;41530;52.382;5.270;2023-03-31T17:50:56;99191.91;;;18.27;53.12
55656;BME280;41530;52.382;5.270;2023-03-31T17:53:24;99190.25;;;18.26;53.19
55656;BME280;41530;52.382;5.270;2023-03-31T17:55:51;99197.41;;;18.26;53.52
55656;BME280;41530;52.382;5.270;2023-03-31T17:58:19;99191.06;;;18.27;53.23
55656;BME280;41530;52.382;5.270;2023-03-31T18:00:47;99195.59;;;18.26;53.37
55656;BME280;41530;52.382;5.270;2023-03-31T18:03:14;99200.09;;;18.26;53.08
55656;BME280;41530;52.382;5.270;2023-03-31T18:05:41;99190.44;;;18.25;53.25
55656;BME280;41530;52.382;5.270;2023-03-31T18:08:08;99201.09;;;18.25;53.01
55656;BME280;41530;52.382;5.270;2023-03-31T18:10:35;99193.13;;;18.25;53.05
55656;BME280;41530;52.382;5.270;2023-03-31T18:13:06;99196.00;;;18.23;53.09
55656;BME280;41530;52.382;5.270;2023-03-31T18:15:32;99190.69;;;18.23;53.76
55656;BME280;41530;52.382;5.270;2023-03-31T18:17:59;99196.81;;;18.24;53.55
55656;BME280;41530;52.382;5.270;2023-03-31T18:20:26;99191.50;;;18.24;53.63
55656;BME280;41530;52.382;5.270;2023-03-31T18:22:53;99186.16;;;18.24;53.31
55656;BME280;41530;52.382;5.270;2023-03-31T18:25:20;99187.19;;;18.23;53.34
55656;BME280;41530;52.382;5.270;2023-03-31T18:27:47;99196.00;;;18.23;53.50
55656;BME280;41530;52.382;5.270;2023-03-31T18:30:14;99185.53;;;18.22;53.00
55656;BME280;41530;52.382;5.270;2023-03-31T18:32:41;99189.84;;;18.23;53.34
55656;BME280;41530;52.382;5.270;2023-03-31T18:35:09;99179.41;;;18.21;53.44
55656;BME280;41530;52.382;5.270;2023-03-31T18:37:35;99182.06;;;18.21;53.34
55656;BME280;41530;52.382;5.270;2023-03-31T18:40:02;99194.53;;;18.21;53.42
55656;BME280;41530;52.382;5.270;2023-03-31T18:42:29;99192.91;;;18.20;53.01
55656;BME280;41530;52.382;5.270;2023-03-31T18:44:56;99191.06;;;18.20;53.38
55656;BME280;41530;52.382;5.270;2023-03-31T18:47:22;99187.78;;;18.18;53.61
55656;BME280;41530;52.382;5.270;2023-03-31T18:49:49;99195.38;;;18.21;53.36
55656;BME280;41530;52.382;5.270;2023-03-31T18:52:21;99191.25;;;18.19;53.42
55656;BME280;41530;52.382;5.270;2023-03-31T18:54:47;99205.38;;;18.19;53.31
55656;BME280;41530;52.382;5.270;2023-03-31T18:57:15;99197.41;;;18.19;53.45
55656;BME280;41530;52.382;5.270;2023-03-31T18:59:43;99193.09;;;18.18;53.09
55656;BME280;41530;52.382;5.270;2023-03-31T19:02:14;99187.78;;;18.18;53.40
55656;BME280;41530;52.382;5.270;2023-03-31T19:04:44;99194.09;;;18.17;53.06
55656;BME280;41530;52.382;5.270;2023-03-31T19:07:11;99190.63;;;18.16;53.40
55656;BME280;41530;52.382;5.270;2023-03-31T19:09:38;99190.63;;;18.16;53.12
55656;BME280;41530;52.382;5.270;2023-03-31T19:12:05;99188.97;;;18.15;53.24
55656;BME280;41530;52.382;5.270;2023-03-31T19:14:31;99187.97;;;18.16;53.11
55656;BME280;41530;52.382;5.270;2023-03-31T19:17:02;99187.97;;;18.16;52.91
55656;BME280;41530;52.382;5.270;2023-03-31T19:19:29;99188.97;;;18.15;53.23
55656;BME280;41530;52.382;5.270;2023-03-31T19:21:56;99189.78;;;18.16;53.27
55656;BME280;41530;52.382;5.270;2023-03-31T19:24:23;99190.63;;;18.16;53.31
55656;BME280;41530;52.382;5.270;2023-03-31T19:26:50;99188.16;;;18.15;53.11
55656;BME280;41530;52.382;5.270;2023-03-31T19:29:17;99188.16;;;18.15;53.37
55656;BME280;41530;52.382;5.270;2023-03-31T19:31:43;99187.53;;;18.13;53.39
55656;BME280;41530;52.382;5.270;2023-03-31T19:34:12;99186.50;;;18.14;53.51
55656;BME280;41530;52.382;5.270;2023-03-31T19:36:41;99193.66;;;18.13;53.18
55656;BME280;41530;52.382;5.270;2023-03-31T19:39:08;99185.69;;;18.13;53.42
55656;BME280;41530;52.382;5.270;2023-03-31T19:41:36;99185.69;;;18.13;53.30
55656;BME280;41530;52.382;5.270;2023-03-31T19:44:03;99190.19;;;18.13;52.91
55656;BME280;41530;52.382;5.270;2023-03-31T19:46:29;99186.69;;;18.12;52.99
55656;BME280;41530;52.382;5.270;2023-03-31T19:48:56;99180.56;;;18.12;53.35
55656;BME280;41530;52.382;5.270;2023-03-31T19:51:23;99184.03;;;18.12;53.23
55656;BME280;41530;52.382;5.270;2023-03-31T19:53:49;99183.22;;;18.12;53.33
55656;BME280;41530;52.382;5.270;2023-03-31T19:56:17;99181.56;;;18.11;53.40
55656;BME280;41530;52.382;5.270;2023-03-31T19:58:44;99181.56;;;18.11;53.33
55656;BME280;41530;52.382;5.270;2023-03-31T20:01:20;99178.13;;;18.10;52.92
55656;BME280;41530;52.382;5.270;2023-03-31T20:04:09;99176.47;;;18.09;53.05
55656;BME280;41530;52.382;5.270;2023-03-31T20:06:37;99171.97;;;18.10;53.29
55656;BME280;41530;52.382;5.270;2023-03-31T20:09:04;99127.97;;;17.79;53.09
55656;BME280;41530;52.382;5.270;2023-03-31T20:11:37;99094.16;;;17.67;52.91
55656;BME280;41530;52.382;5.270;2023-03-31T20:14:29;99137.69;;;17.94;53.09
55656;BME280;41530;52.382;5.270;2023-03-31T20:16:56;99165.59;;;18.11;53.34
55656;BME280;41530;52.382;5.270;2023-03-31T20:19:26;99158.66;;;18.10;53.26
55656;BME280;41530;52.382;5.270;2023-03-31T20:21:53;99152.53;;;18.09;52.98
55656;BME280;41530;52.382;5.270;2023-03-31T20:24:20;99155.78;;;18.11;53.34
55656;BME280;41530;52.382;5.270;2023-03-31T20:26:46;99160.28;;;18.11;53.42
55656;BME280;41530;52.382;5.270;2023-03-31T20:29:13;99151.69;;;18.09;53.31
55656;BME280;41530;52.382;5.270;2023-03-31T20:34:12;99071.16;;;17.59;53.48
55656;BME280;41530;52.382;5.270;2023-03-31T20:36:44;99105.50;;;17.82;53.42
55656;BME280;41530;52.382;5.270;2023-03-31T20:39:39;99133.00;;;17.96;53.43
55656;BME280;41530;52.382;5.270;2023-03-31T20:42:05;99104.88;;;17.80;53.46
55656;BME280;41530;52.382;5.270;2023-03-31T20:44:43;99110.63;;;17.84;53.41
55656;BME280;41530;52.382;5.270;2023-03-31T20:47:10;99102.03;;;17.82;53.76
55656;BME280;41530;52.382;5.270;2023-03-31T20:49:43;99147.59;;;18.06;53.36
55656;BME280;41530;52.382;5.270;2023-03-31T20:52:09;99115.78;;;17.92;53.62
55656;BME280;41530;52.382;5.270;2023-03-31T20:54:39;99148.22;;;18.08;53.14
55656;BME280;41530;52.382;5.270;2023-03-31T20:57:05;99079.41;;;17.64;53.41
55656;BME280;41530;52.382;5.270;2023-03-31T20:59:32;99107.75;;;17.85;53.14
55656;BME280;41530;52.382;5.270;2023-03-31T21:02:01;99103.03;;;17.80;53.02
55656;BME280;41530;52.382;5.270;2023-03-31T21:04:33;99098.09;;;17.77;53.44
55656;BME280;41530;52.382;5.270;2023-03-31T21:07:03;99066.84;;;17.58;53.39
55656;BME280;41530;52.382;5.270;2023-03-31T21:09:31;99129.91;;;17.99;53.41
55656;BME280;41530;52.382;5.270;2023-03-31T21:12:02;99057.44;;;17.56;53.31
55656;BME280;41530;52.382;5.270;2023-03-31T21:14:30;99096.25;;;17.78;53.28
55656;BME280;41530;52.382;5.270;2023-03-31T21:17:03;99062.16;;;17.60;53.22
55656;BME280;41530;52.382;5.270;2023-03-31T21:19:36;99113.94;;;17.92;53.62
55656;BME280;41530;52.382;5.270;2023-03-31T21:22:02;99108.19;;;17.89;53.51
55656;BME280;41530;52.382;5.270;2023-03-31T21:24:34;99078.00;;;17.68;53.58
55656;BME280;41530;52.382;5.270;2023-03-31T21:27:01;99069.31;;;17.60;53.64
55656;BME280;41530;52.382;5.270;2023-03-31T21:29:32;99125.41;;;17.93;53.74
55656;BME280;41530;52.382;5.270;2023-03-31T21:32:01;99064.81;;;17.60;53.55
55656;BME280;41530;52.382;5.270;2023-03-31T21:34:31;99095.25;;;17.79;53.32
55656;BME280;41530;52.382;5.270;2023-03-31T21:37:00;99126.03;;;17.95;53.30
55656;BME280;41530;52.382;5.270;2023-03-31T21:39:35;99072.59;;;17.62;53.30
55656;BME280;41530;52.382;5.270;2023-03-31T21:42:01;99113.47;;;17.82;53.02
55656;BME280;41530;52.382;5.270;2023-03-31T21:44:28;99104.44;;;17.76;53.20
55656;BME280;41530;52.382;5.270;2023-03-31T21:46:59;99128.63;;;17.88;53.25
55656;BME280;41530;52.382;5.270;2023-03-31T21:49:28;99063.91;;;17.46;53.24
55656;BME280;41530;52.382;5.270;2023-03-31T21:52:01;99108.50;;;17.72;53.20
55656;BME280;41530;52.382;5.270;2023-03-31T21:54:30;99058.78;;;17.45;52.96
55656;BME280;41530;52.382;5.270;2023-03-31T21:56:56;99063.50;;;17.43;53.07
55656;BME280;41530;52.382;5.270;2023-03-31T21:59:26;99069.00;;;17.41;52.97
55656;BME280;41530;52.382;5.270;2023-03-31T22:02:02;99104.34;;;17.63;53.07
55656;BME280;41530;52.382;5.270;2023-03-31T22:04:30;99118.72;;;17.69;53.17
55656;BME280;41530;52.382;5.270;2023-03-31T22:06:57;99086.19;;;17.45;53.08
55656;BME280;41530;52.382;5.270;2023-03-31T22:09:30;99107.16;;;17.62;52.95
55656;BME280;41530;52.382;5.270;2023-03-31T22:11:56;99081.50;;;17.48;53.15
55656;BME280;41530;52.382;5.270;2023-03-31T22:14:23;99099.97;;;17.56;53.05
55656;BME280;41530;52.382;5.270;2023-03-31T22:16:50;99071.41;;;17.36;52.93